createdAt,value
2023-01-31T00:00:43.295Z,86.77
2023-01-31T00:02:01.353Z,87.38
2023-01-31T00:03:04.241Z,86.21
2023-01-31T00:04:08.391Z,85.88
2023-01-31T00:05:11.254Z,86.89
2023-01-31T00:06:17.029Z,88.00
2023-01-31T00:07:19.793Z,86.98
2023-01-31T00:08:22.938Z,87.47
2023-01-31T00:09:26.365Z,88.04
2023-01-31T00:10:29.420Z,87.53
2023-01-31T00:11:32.889Z,87.10
2023-01-31T00:12:37.276Z,87.86
2023-01-31T00:13:42.886Z,88.03
2023-01-31T00:14:45.714Z,88.42
2023-01-31T00:15:48.742Z,88.42
2023-01-31T00:16:52.299Z,88.72
2023-01-31T00:17:55.378Z,89.07
2023-01-31T00:18:58.206Z,88.76
2023-01-31T00:20:01.472Z,89.00
2023-01-31T00:21:08.915Z,88.29
2023-01-31T00:22:11.920Z,88.20
2023-01-31T00:23:14.762Z,88.14
2023-01-31T00:24:17.723Z,87.40
2023-01-31T00:25:20.901Z,87.76
2023-01-31T00:26:29.838Z,86.95
2023-01-31T00:27:33.179Z,86.67
2023-01-31T00:28:36.209Z,87.51
2023-01-31T00:29:39.256Z,88.01
2023-01-31T00:30:42.124Z,88.38
2023-01-31T00:31:45.040Z,88.14
2023-01-31T00:32:47.998Z,88.45
2023-01-31T00:33:51.758Z,88.30
2023-01-31T00:34:54.737Z,88.29
2023-01-31T00:35:57.496Z,87.78
2023-01-31T00:37:00.260Z,88.01
2023-01-31T00:38:03.127Z,85.51
2023-01-31T00:39:07.052Z,86.10
2023-01-31T00:40:10.716Z,86.53
2023-01-31T00:41:13.927Z,86.66
2023-01-31T00:42:16.738Z,86.44
2023-01-31T00:43:20.480Z,87.45
2023-01-31T00:44:23.539Z,87.69
2023-01-31T00:45:26.614Z,88.25
2023-01-31T00:46:29.652Z,85.17
2023-01-31T00:47:32.610Z,85.43
2023-01-31T00:48:36.048Z,86.89
2023-01-31T00:49:39.014Z,86.58
2023-01-31T00:50:41.891Z,85.22
2023-01-31T00:51:44.907Z,86.12
2023-01-31T00:52:48.125Z,87.00
2023-01-31T00:53:51.794Z,85.55
2023-01-31T00:54:54.989Z,85.91
2023-01-31T00:56:08.631Z,86.39
2023-01-31T00:57:12.251Z,87.06
2023-01-31T00:58:15.298Z,87.56
2023-01-31T00:59:18.407Z,87.90
2023-01-31T01:00:21.289Z,88.36
2023-01-31T01:01:33.261Z,87.80
2023-01-31T01:02:36.491Z,88.33
2023-01-31T01:03:43.279Z,85.03
2023-01-31T01:04:46.236Z,81.86
2023-01-31T01:05:49.011Z,82.08
2023-01-31T01:06:51.889Z,83.37
2023-01-31T01:07:54.865Z,81.74
2023-01-31T01:08:59.998Z,83.32
2023-01-31T01:10:03.832Z,84.33
2023-01-31T01:11:11.628Z,85.37
2023-01-31T01:12:14.392Z,86.11
2023-01-31T01:13:17.513Z,85.90
2023-01-31T01:14:20.380Z,86.09
2023-01-31T01:15:23.945Z,86.94
2023-01-31T01:16:38.262Z,87.06
2023-01-31T01:17:41.220Z,84.10
2023-01-31T01:18:46.552Z,81.92
2023-01-31T01:19:49.430Z,81.34
2023-01-31T01:20:54.072Z,81.07
2023-01-31T01:21:57.027Z,82.20
2023-01-31T01:22:59.757Z,79.98
2023-01-31T01:24:02.680Z,80.70
2023-01-31T01:25:06.256Z,84.67
2023-01-31T01:26:17.026Z,83.33
2023-01-31T01:27:20.408Z,83.24
2023-01-31T01:28:23.269Z,83.80
2023-01-31T01:29:26.301Z,83.26
2023-01-31T01:30:30.043Z,79.13
2023-01-31T01:31:33.231Z,83.56
2023-01-31T01:32:36.427Z,82.65
2023-01-31T01:33:42.327Z,81.10
2023-01-31T01:34:45.111Z,82.78
2023-01-31T01:35:50.229Z,84.36
2023-01-31T01:36:53.232Z,86.05
2023-01-31T01:37:55.966Z,84.72
2023-01-31T01:38:59.930Z,84.48
2023-01-31T01:40:05.654Z,84.57
2023-01-31T01:41:08.770Z,85.68
2023-01-31T01:42:15.016Z,84.25
2023-01-31T01:43:17.779Z,83.27
2023-01-31T01:44:39.477Z,83.84
2023-01-31T01:45:42.396Z,82.76
2023-01-31T01:46:46.019Z,86.09
2023-01-31T01:47:52.852Z,86.90
2023-01-31T01:48:59.034Z,87.48
2023-01-31T01:50:09.872Z,88.10
2023-01-31T01:51:16.498Z,86.97
2023-01-31T01:52:20.062Z,87.88
2023-01-31T01:53:26.786Z,87.35
2023-01-31T01:54:43.559Z,87.89
2023-01-31T01:55:49.668Z,84.55
2023-01-31T01:56:59.923Z,83.08
2023-01-31T01:58:18.459Z,81.35
2023-01-31T01:59:26.797Z,81.94
2023-01-31T02:00:33.049Z,86.69
2023-01-31T02:01:37.529Z,81.64
2023-01-31T02:02:47.486Z,82.44
2023-01-31T02:03:54.344Z,81.85
2023-01-31T02:04:58.315Z,79.79
2023-01-31T02:06:04.264Z,78.94
2023-01-31T02:07:07.862Z,81.66
2023-01-31T02:08:11.391Z,80.42
2023-01-31T02:09:22.817Z,79.21
2023-01-31T02:10:35.131Z,80.92
2023-01-31T02:11:42.721Z,80.52
2023-01-31T02:12:46.238Z,81.37
2023-01-31T02:13:56.157Z,78.95
2023-01-31T02:15:00.641Z,77.70
2023-01-31T02:16:06.544Z,77.66
2023-01-31T02:17:13.811Z,79.08
2023-01-31T02:18:17.379Z,80.07
2023-01-31T02:19:25.703Z,79.12
2023-01-31T02:20:37.718Z,81.53
2023-01-31T02:21:43.521Z,80.57
2023-01-31T02:22:53.645Z,78.96
2023-01-31T02:24:15.133Z,79.47
2023-01-31T02:25:36.861Z,76.54
2023-01-31T02:26:46.010Z,78.04
2023-01-31T02:27:58.648Z,77.61
2023-01-31T02:29:14.688Z,77.83
2023-01-31T02:32:26.108Z,77.20
2023-01-31T02:33:46.612Z,76.91
2023-01-31T02:34:56.610Z,80.66
2023-01-31T02:36:05.300Z,81.60
2023-01-31T02:37:07.987Z,78.76
2023-01-31T02:38:14.374Z,80.78
2023-01-31T02:39:19.922Z,84.19
2023-01-31T02:40:28.855Z,83.21
2023-01-31T02:41:48.523Z,77.32
2023-01-31T02:42:59.751Z,78.23
2023-01-31T02:44:40.389Z,77.01
2023-01-31T02:45:43.539Z,76.46
2023-01-31T02:46:58.729Z,76.58
2023-01-31T02:48:07.954Z,76.26
2023-01-31T02:49:34.923Z,78.60
2023-01-31T02:50:52.792Z,77.11
2023-01-31T02:52:15.958Z,75.96
2023-01-31T02:53:23.154Z,77.04
2023-01-31T02:54:47.889Z,81.78
2023-01-31T02:56:17.395Z,85.30
2023-01-31T02:57:22.186Z,83.20
2023-01-31T02:58:28.893Z,77.29
2023-01-31T02:59:32.977Z,76.10
2023-01-31T03:00:37.140Z,76.32
2023-01-31T03:01:43.859Z,76.07
2023-01-31T03:02:46.958Z,76.79
2023-01-31T03:03:50.929Z,76.32
2023-01-31T03:04:53.811Z,78.85
2023-01-31T03:06:33.748Z,78.32
2023-01-31T03:07:38.466Z,78.19
2023-01-31T03:08:44.634Z,76.68
2023-01-31T03:09:53.630Z,78.59
2023-01-31T03:11:01.117Z,75.94
2023-01-31T03:12:20.955Z,76.91
2023-01-31T03:13:24.329Z,77.17
2023-01-31T03:14:27.948Z,76.53
2023-01-31T03:15:56.798Z,75.79
2023-01-31T03:17:27.720Z,75.87
2023-01-31T03:18:35.592Z,76.92
2023-01-31T03:19:46.853Z,78.40
2023-01-31T03:20:53.136Z,80.60
2023-01-31T03:22:00.961Z,80.07
2023-01-31T03:23:13.717Z,83.04
2023-01-31T03:24:18.208Z,80.05
2023-01-31T03:25:24.258Z,78.07
2023-01-31T03:26:29.955Z,78.78
2023-01-31T03:27:34.100Z,77.85
2023-01-31T03:28:42.305Z,79.16
2023-01-31T03:29:45.436Z,80.54
2023-01-31T03:30:48.530Z,82.82
2023-01-31T03:31:57.650Z,81.36
2023-01-31T03:33:04.151Z,83.45
2023-01-31T03:34:09.503Z,83.59
2023-01-31T03:35:12.609Z,84.36
2023-01-31T03:36:39.160Z,85.19
2023-01-31T03:38:16.548Z,85.79
2023-01-31T03:39:25.588Z,85.45
2023-01-31T03:40:34.980Z,83.33
2023-01-31T03:41:44.057Z,85.67
2023-01-31T03:42:53.564Z,86.44
2023-01-31T03:44:03.767Z,86.31
2023-01-31T03:45:09.661Z,87.57
2023-01-31T03:46:31.605Z,88.56
2023-01-31T03:47:41.052Z,87.96
2023-01-31T03:48:48.437Z,88.40
2023-01-31T03:49:53.917Z,88.62
2023-01-31T03:50:59.024Z,88.39
2023-01-31T03:52:06.198Z,86.17
2023-01-31T03:53:09.302Z,87.31
2023-01-31T03:54:16.282Z,87.81
2023-01-31T03:55:22.062Z,88.65
2023-01-31T03:56:28.048Z,88.72
2023-01-31T03:57:34.449Z,89.01
2023-01-31T03:58:40.223Z,89.34
2023-01-31T03:59:46.768Z,89.32
2023-01-31T04:00:51.164Z,89.52
2023-01-31T04:01:55.826Z,89.69
2023-01-31T04:03:04.504Z,87.09
2023-01-31T04:04:16.168Z,85.47
2023-01-31T04:05:23.101Z,86.06
2023-01-31T04:06:29.329Z,86.78
2023-01-31T04:07:32.511Z,86.15
2023-01-31T04:08:35.553Z,87.08
2023-01-31T04:09:41.241Z,88.03
2023-01-31T04:10:44.114Z,86.72
2023-01-31T04:11:48.609Z,85.44
2023-01-31T04:12:51.387Z,86.47
2023-01-31T04:13:54.259Z,87.11
2023-01-31T04:14:57.116Z,86.76
2023-01-31T04:15:59.948Z,84.17
2023-01-31T04:17:02.812Z,81.88
2023-01-31T04:18:05.585Z,79.73
2023-01-31T04:19:08.442Z,82.32
2023-01-31T04:20:13.168Z,84.02
2023-01-31T04:21:15.951Z,85.26
2023-01-31T04:22:18.759Z,85.49
2023-01-31T04:23:21.586Z,80.26
2023-01-31T04:24:24.472Z,82.09
2023-01-31T04:25:27.530Z,81.11
2023-01-31T04:26:30.340Z,77.42
2023-01-31T04:27:33.390Z,77.58
2023-01-31T04:28:36.687Z,77.78
2023-01-31T04:29:39.405Z,80.37
2023-01-31T04:30:42.441Z,80.87
2023-01-31T04:31:46.471Z,78.15
2023-01-31T04:32:49.449Z,76.18
2023-01-31T04:33:52.272Z,76.69
2023-01-31T04:34:55.267Z,77.16
2023-01-31T04:35:58.818Z,78.08
2023-01-31T04:37:01.672Z,76.87
2023-01-31T04:38:04.491Z,79.71
2023-01-31T04:39:07.467Z,80.78
2023-01-31T04:40:18.000Z,82.57
2023-01-31T04:41:20.985Z,84.21
2023-01-31T04:42:23.777Z,81.57
2023-01-31T04:43:26.573Z,80.42
2023-01-31T04:44:29.423Z,82.27
2023-01-31T04:45:32.981Z,81.96
2023-01-31T04:46:36.501Z,82.35
2023-01-31T04:47:39.339Z,83.73
2023-01-31T04:48:42.251Z,83.71
2023-01-31T04:49:45.776Z,84.99
2023-01-31T04:50:48.659Z,82.32
2023-01-31T04:51:51.453Z,81.76
2023-01-31T04:52:54.207Z,79.37
2023-01-31T04:53:56.937Z,80.28
2023-01-31T04:54:59.762Z,83.01
2023-01-31T04:56:02.982Z,81.33
2023-01-31T04:57:05.851Z,81.09
2023-01-31T04:58:08.787Z,77.69
2023-01-31T04:59:11.541Z,77.75
2023-01-31T05:00:14.514Z,77.16
2023-01-31T05:01:17.439Z,77.97
2023-01-31T05:02:20.601Z,78.06
2023-01-31T05:03:23.546Z,78.96
2023-01-31T05:04:26.564Z,78.56
2023-01-31T05:05:29.529Z,76.14
2023-01-31T05:06:32.783Z,77.65
2023-01-31T05:07:36.095Z,82.20
2023-01-31T05:08:38.927Z,79.11
2023-01-31T05:09:42.596Z,77.31
2023-01-31T05:10:45.419Z,79.02
2023-01-31T05:11:48.542Z,78.78
2023-01-31T05:12:51.539Z,77.12
2023-01-31T05:13:54.349Z,76.22
2023-01-31T05:14:57.125Z,74.76
2023-01-31T05:15:59.957Z,74.97
2023-01-31T05:17:03.016Z,75.37
2023-01-31T05:18:06.695Z,74.87
2023-01-31T05:19:09.502Z,76.49
2023-01-31T05:20:12.442Z,75.55
2023-01-31T05:21:15.334Z,74.54
2023-01-31T05:22:18.498Z,75.08
2023-01-31T05:23:21.418Z,76.00
2023-01-31T05:24:25.035Z,76.31
2023-01-31T05:25:28.288Z,76.51
2023-01-31T05:26:31.514Z,76.69
2023-01-31T05:27:34.345Z,75.65
2023-01-31T05:28:37.434Z,74.70
2023-01-31T05:29:40.340Z,77.40
2023-01-31T05:30:43.135Z,79.23
2023-01-31T05:31:46.026Z,80.35
2023-01-31T05:32:49.913Z,76.63
2023-01-31T05:33:53.526Z,78.39
2023-01-31T05:34:56.413Z,76.53
2023-01-31T05:35:59.865Z,74.44
2023-01-31T05:37:03.629Z,75.70
2023-01-31T05:38:06.951Z,78.96
2023-01-31T05:39:10.141Z,79.92
2023-01-31T05:40:14.258Z,81.41
2023-01-31T05:41:17.019Z,81.85
2023-01-31T05:42:19.786Z,79.38
2023-01-31T05:43:22.729Z,83.00
2023-01-31T05:44:25.776Z,85.17
2023-01-31T05:45:29.144Z,83.96
2023-01-31T05:46:32.367Z,84.64
2023-01-31T05:47:35.296Z,84.19
2023-01-31T05:48:38.020Z,83.91
2023-01-31T05:49:41.099Z,81.33
2023-01-31T05:50:43.860Z,79.81
2023-01-31T05:51:46.638Z,83.01
2023-01-31T05:52:50.460Z,78.62
2023-01-31T05:53:54.989Z,77.11
2023-01-31T05:54:57.995Z,77.65
2023-01-31T05:56:00.801Z,78.81
2023-01-31T05:57:03.602Z,80.39
2023-01-31T05:58:06.474Z,79.38
2023-01-31T05:59:09.668Z,78.77
2023-01-31T06:00:13.237Z,79.59
2023-01-31T06:01:17.614Z,77.70
2023-01-31T06:02:20.526Z,78.59
2023-01-31T06:03:23.576Z,77.75
2023-01-31T06:04:26.487Z,79.17
2023-01-31T06:05:29.489Z,78.19
2023-01-31T06:06:32.209Z,83.33
2023-01-31T06:07:35.135Z,80.05
2023-01-31T06:08:37.926Z,79.99
2023-01-31T06:09:42.077Z,80.02
2023-01-31T06:10:45.069Z,84.75
2023-01-31T06:11:47.873Z,85.55
2023-01-31T06:12:50.808Z,85.68
2023-01-31T06:13:57.649Z,83.65
2023-01-31T06:15:00.803Z,80.84
2023-01-31T06:16:04.415Z,83.95
2023-01-31T06:17:07.221Z,86.10
2023-01-31T06:18:10.073Z,86.05
2023-01-31T06:19:12.874Z,87.24
2023-01-31T06:20:16.046Z,86.91
2023-01-31T06:21:18.937Z,84.36
2023-01-31T06:22:21.725Z,85.92
2023-01-31T06:23:24.576Z,86.95
2023-01-31T06:24:27.329Z,86.41
2023-01-31T06:25:30.590Z,86.23
2023-01-31T06:26:33.737Z,85.77
2023-01-31T06:27:36.613Z,86.28
2023-01-31T06:28:39.498Z,86.83
2023-01-31T06:29:42.267Z,87.09
2023-01-31T06:30:45.417Z,84.94
2023-01-31T06:31:48.569Z,84.98
2023-01-31T06:32:51.409Z,85.38
2023-01-31T06:33:54.179Z,87.07
2023-01-31T06:35:05.880Z,87.91
2023-01-31T06:36:28.714Z,87.39
2023-01-31T06:37:31.910Z,88.55
2023-01-31T06:38:34.743Z,87.11
2023-01-31T06:39:37.618Z,87.25
2023-01-31T06:40:40.530Z,88.25
2023-01-31T06:41:43.391Z,88.75
2023-01-31T06:42:46.383Z,87.80
2023-01-31T06:43:49.128Z,88.15
2023-01-31T06:44:51.892Z,87.36
2023-01-31T06:45:54.979Z,87.74
2023-01-31T06:46:57.897Z,88.18
2023-01-31T06:48:02.045Z,87.17
2023-01-31T06:49:05.056Z,86.70
2023-01-31T06:50:08.035Z,86.93
2023-01-31T06:51:10.824Z,87.10
2023-01-31T06:52:15.120Z,86.74
2023-01-31T06:53:18.355Z,87.70
2023-01-31T06:54:21.155Z,87.42
2023-01-31T06:55:24.083Z,88.30
2023-01-31T06:56:26.830Z,88.00
2023-01-31T06:57:29.666Z,85.22
2023-01-31T06:58:36.322Z,81.52
2023-01-31T06:59:39.210Z,81.66
2023-01-31T07:00:41.951Z,83.96
2023-01-31T07:01:44.895Z,86.01
2023-01-31T07:02:48.492Z,87.69
2023-01-31T07:03:51.712Z,88.06
2023-01-31T07:04:55.492Z,88.28
2023-01-31T07:05:58.279Z,86.01
2023-01-31T07:07:01.092Z,86.74
2023-01-31T07:08:03.960Z,84.14
2023-01-31T07:09:07.721Z,85.29
2023-01-31T07:10:11.076Z,83.67
2023-01-31T07:11:13.875Z,82.11
2023-01-31T07:12:16.678Z,82.53
2023-01-31T07:13:22.305Z,84.31
2023-01-31T07:14:25.606Z,82.26
2023-01-31T07:15:28.767Z,81.82
2023-01-31T07:16:31.723Z,86.17
2023-01-31T07:17:34.594Z,86.23
2023-01-31T07:18:37.399Z,87.36
2023-01-31T07:19:40.234Z,87.14
2023-01-31T07:20:43.097Z,85.55
2023-01-31T07:21:47.246Z,86.55
2023-01-31T07:22:59.582Z,86.47
2023-01-31T07:24:02.793Z,82.71
2023-01-31T07:25:06.122Z,82.48
2023-01-31T07:26:08.820Z,80.44
2023-01-31T07:27:14.574Z,82.18
2023-01-31T07:28:17.308Z,84.57
2023-01-31T07:29:20.086Z,80.30
2023-01-31T07:30:23.318Z,84.96
2023-01-31T07:31:26.182Z,87.16
2023-01-31T07:32:30.043Z,86.85
2023-01-31T07:33:33.939Z,83.04
2023-01-31T07:34:36.820Z,79.10
2023-01-31T07:35:42.186Z,83.05
2023-01-31T07:36:44.920Z,83.52
2023-01-31T07:37:47.665Z,83.00
2023-01-31T07:38:52.854Z,81.04
2023-01-31T07:39:55.779Z,82.50
2023-01-31T07:41:00.774Z,84.06
2023-01-31T07:42:03.533Z,84.77
2023-01-31T07:43:06.339Z,84.79
2023-01-31T07:44:12.749Z,83.94
2023-01-31T07:45:24.060Z,81.35
2023-01-31T07:46:27.165Z,83.21
2023-01-31T07:47:30.014Z,84.47
2023-01-31T07:48:33.059Z,84.85
2023-01-31T07:49:35.809Z,83.74
2023-01-31T07:50:38.689Z,82.47
2023-01-31T07:51:42.363Z,84.86
2023-01-31T07:52:45.183Z,85.28
2023-01-31T07:53:48.015Z,85.72
2023-01-31T07:54:50.734Z,87.36
2023-01-31T07:55:53.541Z,86.66
2023-01-31T07:56:56.552Z,86.81
2023-01-31T07:57:59.287Z,88.21
2023-01-31T07:59:02.046Z,86.75
2023-01-31T08:00:25.084Z,83.10
2023-01-31T08:01:49.160Z,81.18
2023-01-31T08:03:12.288Z,80.81
2023-01-31T08:04:21.518Z,78.35
2023-01-31T08:05:25.674Z,81.86
2023-01-31T08:06:30.653Z,82.29
2023-01-31T08:07:33.383Z,81.61
2023-01-31T08:08:37.120Z,79.48
2023-01-31T08:09:40.189Z,81.80
2023-01-31T08:10:43.204Z,82.25
2023-01-31T08:11:46.208Z,79.25
2023-01-31T08:12:50.173Z,79.83
2023-01-31T08:13:53.631Z,79.10
2023-01-31T08:14:56.494Z,76.63
2023-01-31T08:15:59.517Z,77.33
2023-01-31T08:17:02.427Z,81.06
2023-01-31T08:18:06.528Z,82.42
2023-01-31T08:19:09.828Z,83.97
2023-01-31T08:20:12.944Z,79.20
2023-01-31T08:21:16.665Z,79.63
2023-01-31T08:22:19.916Z,79.99
2023-01-31T08:23:22.772Z,78.09
2023-01-31T08:24:26.158Z,82.81
2023-01-31T08:25:30.567Z,82.61
2023-01-31T08:26:33.709Z,78.14
2023-01-31T08:27:36.800Z,81.80
2023-01-31T08:28:39.703Z,81.50
2023-01-31T08:29:42.710Z,80.53
2023-01-31T08:30:52.848Z,79.52
2023-01-31T08:31:59.008Z,75.48
2023-01-31T08:33:01.895Z,78.74
2023-01-31T08:34:07.069Z,78.02
2023-01-31T08:35:10.136Z,77.98
2023-01-31T08:36:17.074Z,80.29
2023-01-31T08:37:20.437Z,79.76
2023-01-31T08:38:23.783Z,77.97
2023-01-31T08:39:26.560Z,81.47
2023-01-31T08:40:29.939Z,78.82
2023-01-31T08:41:33.679Z,77.42
2023-01-31T08:42:36.415Z,78.94
2023-01-31T08:43:55.954Z,74.94
2023-01-31T08:44:59.655Z,81.75
2023-01-31T08:46:02.519Z,78.58
2023-01-31T08:47:05.715Z,76.49
2023-01-31T08:48:08.633Z,77.52
2023-01-31T08:49:11.775Z,80.63
2023-01-31T08:50:25.974Z,81.52
2023-01-31T08:51:31.401Z,83.32
2023-01-31T08:52:35.582Z,81.71
2023-01-31T08:53:39.217Z,80.28
2023-01-31T08:54:41.975Z,76.01
2023-01-31T08:55:44.718Z,77.33
2023-01-31T08:56:47.572Z,78.53
2023-01-31T08:57:59.464Z,81.40
2023-01-31T08:59:02.813Z,82.44
2023-01-31T09:00:06.062Z,78.85
2023-01-31T09:01:10.130Z,73.08
2023-01-31T09:02:13.155Z,77.16
2023-01-31T09:03:19.189Z,75.49
2023-01-31T09:04:22.083Z,76.56
2023-01-31T09:05:25.923Z,79.53
2023-01-31T09:06:29.110Z,76.59
2023-01-31T09:07:32.430Z,76.42
2023-01-31T09:08:35.518Z,77.26
2023-01-31T09:09:38.294Z,79.91
2023-01-31T09:10:41.287Z,76.59
2023-01-31T09:11:44.080Z,76.39
2023-01-31T09:12:47.508Z,76.12
2023-01-31T09:13:51.673Z,72.86
2023-01-31T09:14:54.861Z,71.43
2023-01-31T09:16:01.516Z,76.51
2023-01-31T09:17:04.443Z,80.78
2023-01-31T09:18:07.338Z,81.42
2023-01-31T09:19:10.069Z,74.72
2023-01-31T09:20:12.938Z,74.88
2023-01-31T09:21:17.054Z,74.94
2023-01-31T09:22:20.700Z,72.48
2023-01-31T09:23:23.882Z,78.46
2023-01-31T09:24:26.965Z,75.94
2023-01-31T09:25:43.018Z,76.12
2023-01-31T09:26:49.523Z,77.88
2023-01-31T09:27:52.788Z,81.04
2023-01-31T09:28:58.044Z,84.24
2023-01-31T09:30:01.125Z,79.21
2023-01-31T09:31:05.663Z,76.91
2023-01-31T09:32:08.522Z,79.41
2023-01-31T09:33:11.237Z,77.41
2023-01-31T09:34:15.320Z,77.01
2023-01-31T09:35:19.660Z,78.80
2023-01-31T09:36:24.904Z,75.62
2023-01-31T09:37:29.930Z,81.65
2023-01-31T09:38:33.352Z,78.74
2023-01-31T09:39:36.543Z,78.23
2023-01-31T09:40:40.682Z,74.67
2023-01-31T09:41:45.911Z,75.88
2023-01-31T09:42:49.166Z,72.16
2023-01-31T09:43:55.318Z,74.30
2023-01-31T09:45:04.203Z,76.19
2023-01-31T09:46:08.448Z,74.81
2023-01-31T09:47:21.463Z,71.93
2023-01-31T09:48:26.467Z,71.97
2023-01-31T09:49:31.986Z,72.66
2023-01-31T09:50:42.534Z,77.93
2023-01-31T09:51:46.794Z,78.98
2023-01-31T09:52:50.413Z,77.74
2023-01-31T09:53:55.012Z,79.81
2023-01-31T09:54:57.984Z,77.00
2023-01-31T09:56:03.952Z,77.93
2023-01-31T09:57:27.173Z,73.39
2023-01-31T09:58:42.221Z,77.95
2023-01-31T09:59:53.924Z,77.95
2023-01-31T10:01:14.186Z,74.70
2023-01-31T10:02:17.092Z,73.21
2023-01-31T10:03:19.913Z,72.85
2023-01-31T10:04:22.961Z,76.48
2023-01-31T10:05:38.688Z,80.35
2023-01-31T10:06:44.349Z,79.45
2023-01-31T10:07:59.288Z,72.33
2023-01-31T10:09:05.054Z,71.37
2023-01-31T10:10:10.811Z,74.22
2023-01-31T10:11:15.781Z,75.25
2023-01-31T10:12:25.208Z,76.81
2023-01-31T10:13:37.040Z,71.88
2023-01-31T10:14:47.888Z,75.44
2023-01-31T10:15:59.188Z,73.46
2023-01-31T10:17:19.884Z,77.51
2023-01-31T10:18:26.105Z,77.50
2023-01-31T10:19:33.004Z,77.45
2023-01-31T10:20:39.809Z,75.42
2023-01-31T10:21:46.249Z,78.44
2023-01-31T10:23:00.629Z,81.28
2023-01-31T10:24:07.378Z,79.53
2023-01-31T10:25:13.149Z,79.20
2023-01-31T10:26:33.683Z,80.79
2023-01-31T10:27:41.068Z,80.42
2023-01-31T10:29:02.862Z,82.75
2023-01-31T10:30:07.222Z,80.87
2023-01-31T10:31:10.159Z,83.40
2023-01-31T10:32:21.295Z,76.49
2023-01-31T10:33:29.271Z,82.32
2023-01-31T10:34:41.273Z,85.10
2023-01-31T10:35:45.691Z,80.11
2023-01-31T10:36:54.743Z,80.80
2023-01-31T10:38:07.112Z,74.56
2023-01-31T10:39:13.045Z,70.89
2023-01-31T10:40:23.032Z,73.89
2023-01-31T10:41:39.472Z,76.51
2023-01-31T10:42:45.599Z,75.50
2023-01-31T10:43:52.770Z,73.64
2023-01-31T10:44:58.900Z,72.51
2023-01-31T10:46:02.238Z,72.42
2023-01-31T10:47:10.855Z,72.24
2023-01-31T10:48:15.609Z,72.00
2023-01-31T10:49:20.966Z,71.65
2023-01-31T10:50:29.850Z,69.45
2023-01-31T10:51:38.729Z,71.08
2023-01-31T10:53:00.111Z,70.61
2023-01-31T10:54:03.039Z,70.38
2023-01-31T10:55:26.300Z,74.67
2023-01-31T10:56:32.503Z,79.97
2023-01-31T10:57:35.486Z,73.33
2023-01-31T10:58:38.958Z,75.64
2023-01-31T10:59:44.322Z,76.26
2023-01-31T11:00:47.447Z,69.94
2023-01-31T11:01:50.492Z,73.81
2023-01-31T11:02:53.564Z,69.81
2023-01-31T11:03:57.273Z,68.87
2023-01-31T11:05:00.302Z,73.20
2023-01-31T11:06:03.139Z,72.84
2023-01-31T11:07:06.458Z,77.97
2023-01-31T11:08:28.139Z,80.19
2023-01-31T11:09:35.506Z,73.60
2023-01-31T11:10:50.163Z,79.17
2023-01-31T11:11:54.804Z,80.42
2023-01-31T11:13:04.467Z,73.63
2023-01-31T11:14:17.134Z,74.89
2023-01-31T11:15:23.339Z,83.23
2023-01-31T11:16:28.411Z,80.83
2023-01-31T11:17:32.410Z,74.79
2023-01-31T11:18:36.924Z,75.45
2023-01-31T11:19:50.666Z,74.28
2023-01-31T11:20:53.736Z,77.80
2023-01-31T11:21:56.739Z,75.50
2023-01-31T11:23:01.654Z,80.81
2023-01-31T11:24:05.850Z,81.20
2023-01-31T11:25:18.901Z,82.30
2023-01-31T11:26:30.258Z,78.49
2023-01-31T11:27:33.120Z,77.12
2023-01-31T11:28:40.189Z,71.41
2023-01-31T11:29:49.221Z,69.89
2023-01-31T11:30:53.767Z,77.23
2023-01-31T11:31:59.153Z,73.31
2023-01-31T11:33:02.496Z,71.13
2023-01-31T11:34:17.642Z,69.92
2023-01-31T11:35:21.665Z,68.99
2023-01-31T11:36:24.479Z,67.18
2023-01-31T11:37:29.549Z,67.83
2023-01-31T11:38:32.525Z,70.52
2023-01-31T11:39:38.002Z,75.13
2023-01-31T11:40:40.910Z,73.95
2023-01-31T11:41:43.740Z,78.54
2023-01-31T11:42:57.082Z,72.14
2023-01-31T11:44:05.909Z,71.31
2023-01-31T11:45:17.530Z,75.59
2023-01-31T11:46:20.341Z,73.91
2023-01-31T11:47:27.133Z,76.71
2023-01-31T11:48:38.710Z,75.91
2023-01-31T11:49:42.790Z,72.92
2023-01-31T11:50:50.832Z,71.00
2023-01-31T11:51:54.246Z,71.05
2023-01-31T11:52:58.788Z,74.83
2023-01-31T11:54:04.090Z,74.15
2023-01-31T11:55:08.645Z,70.07
2023-01-31T11:56:15.905Z,64.07
2023-01-31T11:57:23.612Z,65.11
2023-01-31T11:58:32.386Z,70.66
2023-01-31T11:59:35.376Z,68.94
2023-01-31T12:00:42.970Z,67.81
2023-01-31T12:01:47.847Z,68.70
2023-01-31T12:02:53.957Z,67.25
2023-01-31T12:04:03.835Z,69.14
2023-01-31T12:05:12.338Z,72.79
2023-01-31T12:06:26.645Z,68.33
2023-01-31T12:07:40.546Z,66.71
2023-01-31T12:08:43.444Z,71.28
2023-01-31T12:09:46.214Z,71.79
2023-01-31T12:10:49.966Z,71.54
2023-01-31T12:11:56.302Z,73.77
2023-01-31T12:13:16.506Z,69.53
2023-01-31T12:14:21.680Z,67.00
2023-01-31T12:15:24.480Z,66.00
2023-01-31T12:16:28.904Z,67.05
2023-01-31T12:17:35.649Z,69.39
2023-01-31T12:18:38.550Z,69.17
2023-01-31T12:20:01.564Z,67.41
2023-01-31T12:21:14.578Z,69.77
2023-01-31T12:22:36.420Z,67.16
2023-01-31T12:24:08.766Z,70.15
2023-01-31T12:25:11.548Z,72.63
2023-01-31T12:26:20.499Z,77.23
2023-01-31T12:27:25.911Z,70.79
2023-01-31T12:28:33.219Z,76.96
2023-01-31T12:29:36.213Z,79.36
2023-01-31T12:30:41.853Z,73.02
2023-01-31T12:32:07.778Z,72.88
2023-01-31T12:33:29.214Z,76.32
2023-01-31T12:35:03.322Z,68.96
2023-01-31T12:36:08.430Z,72.07
2023-01-31T12:37:18.788Z,73.99
2023-01-31T12:38:33.397Z,74.81
2023-01-31T12:39:45.868Z,71.10
2023-01-31T12:41:03.696Z,74.93
2023-01-31T12:42:12.670Z,71.85
2023-01-31T12:43:28.160Z,73.95
2023-01-31T12:45:09.666Z,73.77
2023-01-31T12:46:23.961Z,73.85
2023-01-31T12:47:27.089Z,72.60
2023-01-31T12:48:49.190Z,72.10
2023-01-31T12:50:13.243Z,80.25
2023-01-31T12:51:28.105Z,84.27
2023-01-31T12:52:43.126Z,81.65
2023-01-31T12:53:45.794Z,74.81
2023-01-31T12:55:03.354Z,69.82
2023-01-31T12:56:06.128Z,70.99
2023-01-31T12:57:08.952Z,73.79
2023-01-31T12:58:17.788Z,75.76
2023-01-31T12:59:26.968Z,76.03
2023-01-31T13:00:32.445Z,74.04
2023-01-31T13:01:42.862Z,73.63
2023-01-31T13:03:03.545Z,70.82
2023-01-31T13:04:09.445Z,70.12
2023-01-31T13:05:37.337Z,71.66
2023-01-31T13:06:43.990Z,76.87
2023-01-31T13:08:07.107Z,68.43
2023-01-31T13:09:13.251Z,74.46
2023-01-31T13:10:34.691Z,68.88
2023-01-31T13:11:40.641Z,67.24
2023-01-31T13:12:43.981Z,67.36
2023-01-31T13:13:52.890Z,69.23
2023-01-31T13:15:28.318Z,69.30
2023-01-31T13:16:36.390Z,79.13
2023-01-31T13:17:40.905Z,77.40
2023-01-31T13:18:46.859Z,81.01
2023-01-31T13:19:55.744Z,82.45
2023-01-31T13:21:01.860Z,81.62
2023-01-31T13:22:17.680Z,82.20
2023-01-31T13:23:24.150Z,83.76
2023-01-31T13:24:29.003Z,81.67
2023-01-31T13:25:40.659Z,74.88
2023-01-31T13:26:46.146Z,78.77
2023-01-31T13:27:58.086Z,82.59
2023-01-31T13:29:17.619Z,81.20
2023-01-31T13:30:40.732Z,78.44
2023-01-31T13:31:43.966Z,73.11
2023-01-31T13:32:48.668Z,76.29
2023-01-31T13:33:54.813Z,82.05
2023-01-31T13:35:00.846Z,82.20
2023-01-31T13:36:04.114Z,84.67
2023-01-31T13:37:12.790Z,84.64
2023-01-31T13:38:18.368Z,85.29
2023-01-31T13:39:24.090Z,81.57
2023-01-31T13:40:31.483Z,83.15
2023-01-31T13:41:34.706Z,80.38
2023-01-31T13:42:37.800Z,75.32
2023-01-31T13:43:40.588Z,83.91
2023-01-31T13:44:43.835Z,86.50
2023-01-31T13:45:52.810Z,85.11
2023-01-31T13:47:14.539Z,85.32
2023-01-31T13:48:27.754Z,87.19
2023-01-31T13:49:36.505Z,85.94
2023-01-31T13:50:49.624Z,81.71
2023-01-31T13:51:57.431Z,82.98
2023-01-31T13:53:02.124Z,79.47
2023-01-31T13:54:05.019Z,76.15
2023-01-31T13:55:10.234Z,72.33
2023-01-31T13:56:18.165Z,68.62
2023-01-31T13:57:24.680Z,70.74
2023-01-31T13:58:34.223Z,70.67
2023-01-31T13:59:38.344Z,73.47
2023-01-31T14:00:43.384Z,68.53
2023-01-31T14:01:48.023Z,66.24
2023-01-31T14:03:01.453Z,64.53
2023-01-31T14:04:14.744Z,69.68
2023-01-31T14:05:36.715Z,75.08
2023-01-31T14:06:58.577Z,74.43
2023-01-31T14:08:20.109Z,69.07
2023-01-31T14:09:22.853Z,77.20
2023-01-31T14:10:26.920Z,80.71
2023-01-31T14:11:29.641Z,75.16
2023-01-31T14:12:36.578Z,79.40
2023-01-31T14:13:41.761Z,77.45
2023-01-31T14:14:48.868Z,74.54
2023-01-31T14:15:52.792Z,76.10
2023-01-31T14:16:55.788Z,77.83
2023-01-31T14:18:00.315Z,75.64